Time;durP1;ratioP1;P1;durP2;ratioP2;P2;SDS_P1;SDS_P2;PMS_P1;PMS_P2;Temp;Humidity;BMP_temperature;BMP_pressure;BME280_temperature;BME280_humidity;BME280_pressure;Samples;Min_cycle;Max_cycle;Signal;HPM_P1;HPM_P2
2021/10/20 00:01:41;;;;;;;16.40;14.03;;;16.80;99.90;;;;;;5039532;28;20214;-53
2021/10/20 00:04:08;;;;;;;16.13;14.47;;;16.80;99.90;;;;;;5032744;28;20227;-43
2021/10/20 00:06:34;;;;;;;15.90;13.73;;;16.80;99.90;;;;;;5045014;28;20211;-51
2021/10/20 00:09:01;;;;;;;16.63;14.47;;;16.80;99.90;;;;;;5037947;28;20195;-42
2021/10/20 00:11:28;;;;;;;16.80;14.47;;;16.80;99.90;;;;;;5040597;28;20211;-42
2021/10/20 00:13:56;;;;;;;17.00;14.27;;;16.80;99.90;;;;;;5041019;28;20235;-44
2021/10/20 00:16:23;;;;;;;17.93;13.57;;;16.80;99.90;;;;;;5039326;28;20207;-44
2021/10/20 00:18:50;;;;;;;22.13;15.03;;;16.70;99.90;;;;;;5032571;28;20218;-55
2021/10/20 00:21:21;;;;;;;22.03;14.03;;;16.70;99.90;;;;;;5043786;28;20214;-47
2021/10/20 00:23:47;;;;;;;16.90;14.47;;;16.60;99.90;;;;;;5037884;28;20356;-53
2021/10/20 00:26:14;;;;;;;17.17;15.10;;;16.60;99.90;;;;;;5037853;28;20196;-42
2021/10/20 00:28:41;;;;;;;15.83;14.20;;;16.60;99.90;;;;;;5044000;28;20204;-52
2021/10/20 00:31:09;;;;;;;17.63;14.83;;;16.50;99.90;;;;;;5043209;28;20222;-43
2021/10/20 00:33:36;;;;;;;17.40;13.93;;;16.50;99.90;;;;;;5044497;28;20230;-53
2021/10/20 00:36:02;;;;;;;19.90;15.80;;;16.40;99.90;;;;;;5025833;28;20210;-43
2021/10/20 00:38:29;;;;;;;16.70;13.97;;;16.40;99.90;;;;;;5040736;28;20214;-47
2021/10/20 00:40:56;;;;;;;19.30;15.83;;;16.40;99.90;;;;;;5039136;28;20197;-47
2021/10/20 00:43:24;;;;;;;16.27;14.57;;;16.40;99.90;;;;;;5045090;28;20223;-42
2021/10/20 00:45:51;;;;;;;16.40;14.63;;;16.30;99.90;;;;;;5041039;28;20211;-53
2021/10/20 00:48:20;;;;;;;19.43;14.80;;;16.30;99.90;;;;;;5043780;28;20230;-44
2021/10/20 00:50:47;;;;;;;18.03;14.67;;;16.30;99.90;;;;;;5030205;28;20218;-52
2021/10/20 00:53:13;;;;;;;16.17;13.03;;;16.20;99.90;;;;;;5042760;28;20224;-44
2021/10/20 00:55:41;;;;;;;17.00;14.90;;;16.20;99.90;;;;;;5039472;28;20215;-51
2021/10/20 00:58:08;;;;;;;14.67;13.03;;;16.20;99.90;;;;;;5037414;28;20202;-46
2021/10/20 01:00:35;;;;;;;17.23;13.33;;;16.20;99.90;;;;;;5044649;28;20688;-53
2021/10/20 01:03:02;;;;;;;18.40;13.60;;;16.20;99.90;;;;;;5040989;28;20526;-46
2021/10/20 01:05:30;;;;;;;18.37;13.40;;;16.20;99.90;;;;;;5033835;28;20199;-41
2021/10/20 01:07:56;;;;;;;15.03;13.43;;;16.20;99.90;;;;;;5028574;28;20912;-42
2021/10/20 01:10:23;;;;;;;17.13;13.33;;;16.20;99.90;;;;;;5039144;28;20210;-45
2021/10/20 01:12:50;;;;;;;16.87;12.83;;;16.20;99.90;;;;;;5040920;28;20618;-52
2021/10/20 01:15:19;;;;;;;20.87;13.70;;;16.10;99.90;;;;;;5037187;28;20199;-42
2021/10/20 01:17:47;;;;;;;19.40;13.07;;;16.10;99.90;;;;;;5041938;28;20709;-53
2021/10/20 01:20:14;;;;;;;16.93;13.23;;;16.10;99.90;;;;;;5043352;28;20214;-44
2021/10/20 01:22:42;;;;;;;15.37;12.53;;;16.10;99.90;;;;;;5030351;28;21056;-52
2021/10/20 01:25:12;;;;;;;16.37;12.57;;;16.10;99.90;;;;;;5037514;28;20984;-44
2021/10/20 01:27:39;;;;;;;15.67;12.77;;;16.00;99.90;;;;;;5040149;28;20234;-52
2021/10/20 01:30:07;;;;;;;14.03;11.70;;;16.00;99.90;;;;;;5041458;28;20886;-45
2021/10/20 01:32:35;;;;;;;15.07;11.40;;;16.00;99.90;;;;;;5043471;28;20572;-52
2021/10/20 01:35:01;;;;;;;15.17;11.83;;;16.00;99.90;;;;;;5033843;28;20219;-44
2021/10/20 01:37:30;;;;;;;14.10;11.97;;;16.00;99.90;;;;;;5031704;28;20207;-43
2021/10/20 01:39:58;;;;;;;14.67;11.90;;;15.90;99.90;;;;;;5037502;28;20855;-46
2021/10/20 01:42:24;;;;;;;17.30;12.87;;;15.90;99.90;;;;;;5039304;28;20227;-42
2021/10/20 01:44:51;;;;;;;13.30;10.80;;;15.90;99.90;;;;;;5039751;28;20210;-48
2021/10/20 01:47:18;;;;;;;14.03;11.17;;;15.80;99.90;;;;;;5043747;28;20219;-43
2021/10/20 01:49:45;;;;;;;15.13;11.33;;;15.80;99.90;;;;;;5039762;28;20676;-53
2021/10/20 01:52:11;;;;;;;12.43;11.13;;;15.80;99.90;;;;;;5029928;28;20285;-42
2021/10/20 01:54:38;;;;;;;14.00;11.37;;;15.70;99.90;;;;;;5041210;28;20665;-51
2021/10/20 01:57:06;;;;;;;13.67;11.27;;;15.70;99.90;;;;;;5035946;28;20208;-43
2021/10/20 01:59:32;;;;;;;16.33;11.57;;;15.70;99.90;;;;;;5043699;28;20273;-41
2021/10/20 02:01:59;;;;;;;14.20;10.93;;;15.70;99.90;;;;;;5034368;28;20195;-44
2021/10/20 02:04:26;;;;;;;14.13;11.50;;;15.70;99.90;;;;;;5043176;28;20195;-45
2021/10/20 02:06:52;;;;;;;13.97;11.20;;;15.70;99.90;;;;;;5025992;28;20215;-52
2021/10/20 02:09:19;;;;;;;12.50;10.87;;;15.60;99.90;;;;;;5041827;28;20199;-42
2021/10/20 02:11:45;;;;;;;13.40;10.90;;;15.60;99.90;;;;;;5038376;28;20207;-55
2021/10/20 02:14:14;;;;;;;12.23;10.80;;;15.60;99.90;;;;;;5039810;28;20227;-42
2021/10/20 02:16:42;;;;;;;12.40;10.43;;;15.60;99.90;;;;;;5041238;28;20298;-52
2021/10/20 02:19:13;;;;;;;11.03;9.90;;;15.60;99.90;;;;;;5042118;28;20199;-43
2021/10/20 02:21:40;;;;;;;12.40;10.37;;;15.60;99.90;;;;;;5037507;28;20255;-53
2021/10/20 02:24:06;;;;;;;11.93;9.93;;;15.60;99.90;;;;;;5033007;28;20227;-46
2021/10/20 02:26:33;;;;;;;11.73;9.57;;;15.60;99.90;;;;;;5043360;28;20589;-42
2021/10/20 02:28:59;;;;;;;11.73;9.17;;;15.60;99.90;;;;;;5034616;28;20217;-44
2021/10/20 02:31:27;;;;;;;10.67;9.57;;;15.60;99.90;;;;;;5043089;28;20568;-45
2021/10/20 02:33:54;;;;;;;11.87;9.83;;;15.60;99.90;;;;;;5033710;28;20444;-46
2021/10/20 02:36:21;;;;;;;11.50;9.57;;;15.60;99.90;;;;;;5042283;28;20202;-46
2021/10/20 02:38:48;;;;;;;14.60;10.03;;;15.60;99.90;;;;;;5028043;28;20203;-54
2021/10/20 02:41:14;;;;;;;11.03;9.37;;;15.50;99.90;;;;;;5041875;28;20317;-44
2021/10/20 02:43:41;;;;;;;10.97;9.43;;;15.60;99.90;;;;;;5030483;28;20235;-54
2021/10/20 02:46:08;;;;;;;12.13;9.17;;;15.50;99.90;;;;;;5039448;28;20195;-41
2021/10/20 02:48:36;;;;;;;10.90;9.70;;;15.60;99.90;;;;;;5040871;28;20218;-51
2021/10/20 02:51:02;;;;;;;11.70;8.93;;;15.60;99.90;;;;;;5039727;28;20183;-49
2021/10/20 02:53:29;;;;;;;9.87;8.77;;;15.60;99.90;;;;;;5041743;28;20590;-44
2021/10/20 02:55:56;;;;;;;11.73;8.77;;;15.70;99.90;;;;;;5026171;28;20206;-41
2021/10/20 02:58:22;;;;;;;11.00;9.50;;;15.70;99.90;;;;;;5042460;28;20206;-43
2021/10/20 03:00:49;;;;;;;9.30;8.30;;;15.70;99.90;;;;;;5035566;28;20203;-54
2021/10/20 03:03:15;;;;;;;11.30;8.50;;;15.70;99.90;;;;;;5041940;28;20227;-43
2021/10/20 03:05:43;;;;;;;11.10;8.60;;;15.70;99.90;;;;;;5038802;28;20203;-51
2021/10/20 03:08:11;;;;;;;8.40;7.60;;;15.70;99.90;;;;;;5032833;28;20215;-52
2021/10/20 03:10:38;;;;;;;8.87;7.97;;;15.70;99.90;;;;;;5024042;28;20249;-43
2021/10/20 03:13:04;;;;;;;11.60;8.03;;;15.80;99.90;;;;;;5046085;28;20223;-42
2021/10/20 03:15:31;;;;;;;10.70;7.90;;;15.80;99.90;;;;;;5037169;28;20187;-42
2021/10/20 03:17:57;;;;;;;11.33;8.60;;;15.80;99.90;;;;;;5046389;28;20675;-45
2021/10/20 03:20:24;;;;;;;13.90;9.30;;;15.80;99.90;;;;;;5042647;28;20203;-49
2021/10/20 03:22:52;;;;;;;8.43;6.90;;;15.80;99.90;;;;;;5041044;28;20225;-42
2021/10/20 03:25:19;;;;;;;10.23;8.43;;;15.80;99.90;;;;;;5031588;28;20294;-51
2021/10/20 03:27:48;;;;;;;8.67;7.73;;;15.80;99.90;;;;;;5040105;28;20212;-47
2021/10/20 03:30:16;;;;;;;9.00;7.63;;;15.80;99.90;;;;;;5040618;28;20203;-52
2021/10/20 03:32:43;;;;;;;9.30;7.70;;;15.80;99.90;;;;;;5042783;28;20230;-42
2021/10/20 03:35:11;;;;;;;8.33;7.33;;;15.80;99.90;;;;;;5044594;28;20200;-53
2021/10/20 03:37:38;;;;;;;6.90;6.30;;;15.80;99.90;;;;;;5043938;28;20762;-47
2021/10/20 03:40:07;;;;;;;7.17;6.43;;;15.80;99.90;;;;;;5046646;28;20199;-41
2021/10/20 03:42:35;;;;;;;7.60;6.43;;;15.80;99.90;;;;;;5035360;28;20226;-44
2021/10/20 03:45:02;;;;;;;8.07;7.00;;;15.70;99.90;;;;;;5034215;28;20215;-44
2021/10/20 03:47:28;;;;;;;8.43;7.27;;;15.70;99.90;;;;;;5046300;28;20568;-45
2021/10/20 03:49:55;;;;;;;12.00;6.63;;;15.70;99.90;;;;;;5039322;28;20974;-42
2021/10/20 03:52:22;;;;;;;9.13;7.47;;;15.70;99.90;;;;;;5041555;28;20223;-48
2021/10/20 03:54:49;;;;;;;8.07;6.20;;;15.70;99.90;;;;;;5036944;28;20203;-50
2021/10/20 03:57:17;;;;;;;8.37;5.93;;;15.60;99.90;;;;;;5034242;28;20203;-43
2021/10/20 03:59:44;;;;;;;7.67;6.93;;;15.60;99.90;;;;;;5038615;28;20230;-49
2021/10/20 04:02:11;;;;;;;7.70;6.90;;;15.60;99.90;;;;;;5036179;28;20747;-43
2021/10/20 04:04:38;;;;;;;7.90;7.00;;;15.50;99.90;;;;;;5043642;28;20203;-48
2021/10/20 04:07:05;;;;;;;8.03;6.37;;;15.50;99.90;;;;;;5036595;28;20218;-46
2021/10/20 04:09:31;;;;;;;6.43;5.70;;;15.50;99.90;;;;;;5036915;28;20238;-52
2021/10/20 04:11:58;;;;;;;8.63;6.50;;;15.40;99.90;;;;;;5030271;28;20248;-45
2021/10/20 04:14:26;;;;;;;6.63;6.03;;;15.40;99.90;;;;;;5046143;28;20546;-47
2021/10/20 04:16:53;;;;;;;10.57;7.07;;;15.40;99.90;;;;;;5034090;28;20202;-44
2021/10/20 04:19:19;;;;;;;6.67;6.07;;;15.30;99.90;;;;;;5040097;28;20208;-43
2021/10/20 04:21:46;;;;;;;8.40;6.10;;;15.40;99.90;;;;;;5039366;28;20204;-53
2021/10/20 04:24:12;;;;;;;7.00;6.17;;;15.40;99.90;;;;;;5039547;28;20231;-42
2021/10/20 04:26:39;;;;;;;7.20;5.97;;;15.30;99.90;;;;;;5040263;28;20207;-51
2021/10/20 04:29:06;;;;;;;8.50;6.30;;;15.30;99.90;;;;;;5022731;28;20377;-46
2021/10/20 04:31:34;;;;;;;6.47;5.87;;;15.20;99.90;;;;;;5044689;28;20218;-52
2021/10/20 04:34:00;;;;;;;8.23;7.40;;;15.20;99.90;;;;;;5034636;28;20219;-43
2021/10/20 04:36:27;;;;;;;10.83;7.40;;;15.20;99.90;;;;;;5044680;28;20210;-42
2021/10/20 04:38:53;;;;;;;9.73;7.17;;;15.20;99.90;;;;;;5036737;28;20199;-47
2021/10/20 04:41:20;;;;;;;8.27;7.47;;;15.20;99.90;;;;;;5041956;28;20206;-48
2021/10/20 04:43:47;;;;;;;11.37;7.93;;;15.20;99.90;;;;;;5029533;28;20230;-48
2021/10/20 04:46:13;;;;;;;10.73;8.37;;;15.20;99.90;;;;;;5047963;28;20206;-48
2021/10/20 04:48:41;;;;;;;11.23;9.33;;;15.20;99.90;;;;;;5040690;28;20226;-43
2021/10/20 04:51:08;;;;;;;12.43;9.27;;;15.10;99.90;;;;;;5045148;28;20211;-45
2021/10/20 04:53:35;;;;;;;15.53;11.37;;;15.10;99.90;;;;;;5035962;28;20231;-53
2021/10/20 04:56:02;;;;;;;14.37;11.50;;;15.20;99.90;;;;;;5020931;28;20318;-43
2021/10/20 04:58:28;;;;;;;13.67;11.23;;;15.20;99.90;;;;;;5042037;28;20203;-45
2021/10/20 05:00:55;;;;;;;15.00;12.13;;;15.10;99.90;;;;;;5024795;28;20676;-51
2021/10/20 05:03:22;;;;;;;11.97;10.70;;;15.10;99.90;;;;;;5039818;28;20600;-47
2021/10/20 05:05:49;;;;;;;11.73;10.53;;;15.10;99.90;;;;;;5036071;28;20199;-53
2021/10/20 05:08:16;;;;;;;11.57;7.77;;;15.10;99.90;;;;;;5041264;28;20226;-45
2021/10/20 05:10:43;;;;;;;11.00;8.20;;;15.10;99.90;;;;;;5038757;28;20217;-51
2021/10/20 05:13:09;;;;;;;10.17;7.53;;;15.10;99.90;;;;;;5041329;28;20226;-41
2021/10/20 05:15:38;;;;;;;10.50;7.57;;;15.20;99.90;;;;;;5032081;28;20283;-47
2021/10/20 05:18:04;;;;;;;7.53;6.40;;;15.10;99.90;;;;;;5031761;28;20200;-47
2021/10/20 05:20:31;;;;;;;7.23;6.50;;;15.10;99.90;;;;;;5040656;28;20199;-45
2021/10/20 05:22:59;;;;;;;7.13;6.43;;;15.10;99.90;;;;;;5039782;28;20294;-40
2021/10/20 05:25:26;;;;;;;9.60;6.27;;;15.00;99.90;;;;;;5036818;28;20204;-45
2021/10/20 05:27:52;;;;;;;10.77;6.20;;;15.00;99.90;;;;;;5040810;28;20210;-50
2021/10/20 05:30:19;;;;;;;8.33;6.03;;;15.00;99.90;;;;;;5042195;28;20283;-41
2021/10/20 05:32:46;;;;;;;6.63;6.03;;;15.00;99.90;;;;;;5026438;28;20215;-49
2021/10/20 05:35:18;;;;;;;8.77;5.87;;;15.00;99.90;;;;;;5030914;28;20205;-41
2021/10/20 05:37:45;;;;;;;8.33;6.10;;;15.00;99.90;;;;;;5034836;28;20202;-48
2021/10/20 05:40:13;;;;;;;7.10;6.47;;;15.00;99.90;;;;;;5035735;28;21036;-43
2021/10/20 05:42:40;;;;;;;6.43;5.83;;;15.10;99.90;;;;;;5035095;28;20227;-48
2021/10/20 05:45:07;;;;;;;7.03;6.33;;;15.10;99.90;;;;;;5027339;28;20869;-42
2021/10/20 05:47:34;;;;;;;8.40;5.70;;;15.10;99.90;;;;;;5027370;28;20626;-48
2021/10/20 05:50:00;;;;;;;6.47;5.70;;;15.00;99.90;;;;;;5028446;28;20237;-42
2021/10/20 05:52:27;;;;;;;11.37;5.57;;;15.10;99.90;;;;;;5029890;28;20211;-46
2021/10/20 05:54:53;;;;;;;6.10;5.53;;;15.10;99.90;;;;;;5026739;28;20200;-44
2021/10/20 05:57:22;;;;;;;6.23;5.53;;;15.10;99.90;;;;;;5032434;28;20207;-42
2021/10/20 05:59:49;;;;;;;6.17;4.97;;;15.10;99.90;;;;;;5029137;28;20223;-46
2021/10/20 06:02:15;;;;;;;7.63;5.87;;;15.10;99.90;;;;;;5031581;28;20621;-48
2021/10/20 06:04:42;;;;;;;7.87;6.23;;;15.10;99.90;;;;;;5023174;28;20580;-50
2021/10/20 06:07:09;;;;;;;6.87;6.17;;;15.10;99.90;;;;;;5041331;28;20199;-43
2021/10/20 06:09:35;;;;;;;6.77;5.67;;;15.10;99.90;;;;;;5035390;28;20215;-49
2021/10/20 06:12:03;;;;;;;7.70;5.63;;;15.10;99.90;;;;;;5036181;28;21474;-45
2021/10/20 06:14:31;;;;;;;6.57;5.87;;;15.10;99.90;;;;;;5039298;28;20282;-50
2021/10/20 06:16:59;;;;;;;8.07;5.30;;;15.10;99.90;;;;;;5034651;28;20207;-42
2021/10/20 06:19:25;;;;;;;8.73;5.90;;;15.10;99.90;;;;;;5033722;28;20222;-41
2021/10/20 06:21:52;;;;;;;6.13;5.53;;;15.10;99.90;;;;;;5032885;28;20984;-41
2021/10/20 06:24:19;;;;;;;6.63;5.67;;;15.10;99.90;;;;;;5037492;28;20210;-43
2021/10/20 06:26:45;;;;;;;7.03;5.60;;;15.10;99.90;;;;;;5034278;28;20207;-49
2021/10/20 06:29:12;;;;;;;7.70;6.07;;;15.10;99.90;;;;;;5031839;28;20219;-44
2021/10/20 06:31:40;;;;;;;6.03;5.43;;;15.20;99.90;;;;;;5040799;28;20200;-51
2021/10/20 06:34:07;;;;;;;6.90;6.13;;;15.20;99.90;;;;;;5026030;28;20241;-42
2021/10/20 06:36:36;;;;;;;5.80;4.97;;;15.20;99.90;;;;;;5034898;28;20210;-46
2021/10/20 06:39:04;;;;;;;7.40;6.20;;;15.20;99.90;;;;;;5039594;28;20195;-42
2021/10/20 06:41:31;;;;;;;7.60;5.70;;;15.20;99.90;;;;;;5040176;28;20200;-47
2021/10/20 06:43:57;;;;;;;8.83;5.80;;;15.20;99.90;;;;;;5030180;28;20215;-41
2021/10/20 06:46:24;;;;;;;6.10;5.50;;;15.20;99.90;;;;;;5001870;28;20961;-46
2021/10/20 06:48:52;;;;;;;5.90;5.37;;;15.20;99.90;;;;;;5039873;28;20223;-52
2021/10/20 06:51:19;;;;;;;6.93;5.43;;;15.20;99.90;;;;;;5038266;28;20207;-48
2021/10/20 06:53:46;;;;;;;7.20;5.90;;;15.20;99.90;;;;;;5046005;28;20238;-42
2021/10/20 06:56:13;;;;;;;6.83;6.23;;;15.20;99.90;;;;;;5023316;28;20204;-44
2021/10/20 06:58:39;;;;;;;8.93;6.03;;;15.30;99.90;;;;;;5038306;28;20210;-48
2021/10/20 07:01:06;;;;;;;6.97;4.97;;;15.30;99.90;;;;;;5036218;28;20203;-50
2021/10/20 07:03:33;;;;;;;6.83;5.40;;;15.30;99.90;;;;;;5034507;28;20223;-43
2021/10/20 07:06:01;;;;;;;7.30;5.33;;;15.30;99.90;;;;;;5032228;28;20199;-53
2021/10/20 07:08:27;;;;;;;6.33;5.60;;;15.30;99.90;;;;;;5035952;28;20199;-50
2021/10/20 07:10:54;;;;;;;7.13;5.40;;;15.30;99.90;;;;;;5040159;28;20569;-50
2021/10/20 07:13:21;;;;;;;9.43;6.20;;;15.30;99.90;;;;;;5033248;28;20227;-44
2021/10/20 07:15:49;;;;;;;6.37;5.77;;;15.40;99.90;;;;;;5044508;28;20203;-45
2021/10/20 07:18:16;;;;;;;6.87;5.33;;;15.40;99.90;;;;;;5031849;28;20202;-47
2021/10/20 07:20:42;;;;;;;8.00;5.50;;;15.40;99.90;;;;;;5034501;28;20207;-46
2021/10/20 07:23:10;;;;;;;8.00;5.37;;;15.40;99.90;;;;;;5031750;28;20223;-51
2021/10/20 07:25:37;;;;;;;6.50;5.57;;;15.40;99.90;;;;;;5035852;28;20211;-46
2021/10/20 07:28:04;;;;;;;6.30;5.20;;;15.40;99.90;;;;;;5027674;28;20301;-51
2021/10/20 07:30:31;;;;;;;9.43;5.90;;;15.50;99.90;;;;;;5028359;28;21626;-48
2021/10/20 07:32:58;;;;;;;7.37;5.70;;;15.50;99.90;;;;;;5036943;28;20219;-50
2021/10/20 07:35:25;;;;;;;7.63;5.60;;;15.50;99.90;;;;;;5026872;28;22359;-46
2021/10/20 07:37:52;;;;;;;6.07;5.33;;;15.50;99.90;;;;;;5039498;28;20207;-49
2021/10/20 07:40:20;;;;;;;8.10;6.50;;;15.50;99.90;;;;;;5040166;28;20278;-45
2021/10/20 07:42:47;;;;;;;6.13;5.47;;;15.50;99.90;;;;;;5040671;28;20227;-46
2021/10/20 07:45:17;;;;;;;7.80;5.47;;;15.50;99.90;;;;;;5033941;28;21023;-43
2021/10/20 07:47:43;;;;;;;8.23;5.70;;;15.60;99.90;;;;;;5043352;28;20213;-49
2021/10/20 07:50:10;;;;;;;10.87;5.33;;;15.70;99.90;;;;;;5025321;28;20226;-47
2021/10/20 07:52:38;;;;;;;7.03;5.87;;;15.70;99.90;;;;;;5029784;28;20224;-44
2021/10/20 07:55:06;;;;;;;8.17;6.73;;;15.70;99.90;;;;;;5033171;28;20199;-48
2021/10/20 07:57:35;;;;;;;7.60;6.80;;;15.80;99.90;;;;;;5032776;28;20206;-44
2021/10/20 08:00:01;;;;;;;8.63;6.37;;;15.80;99.90;;;;;;5031807;28;20619;-43
2021/10/20 08:02:32;;;;;;;8.40;6.53;;;15.80;99.90;;;;;;5016836;28;20280;-51
2021/10/20 08:04:59;;;;;;;7.03;6.33;;;15.80;99.90;;;;;;5017700;28;20195;-47
2021/10/20 08:07:27;;;;;;;9.83;6.53;;;15.90;99.90;;;;;;5028282;28;20204;-53
2021/10/20 08:09:53;;;;;;;9.47;6.73;;;15.90;99.90;;;;;;5032722;28;20219;-50
2021/10/20 08:12:21;;;;;;;7.23;6.53;;;15.90;99.90;;;;;;5032250;28;20223;-51
2021/10/20 08:14:52;;;;;;;8.50;7.10;;;15.90;99.90;;;;;;5022491;28;20347;-49
2021/10/20 08:17:19;;;;;;;8.60;7.03;;;15.90;99.90;;;;;;5029959;28;20202;-47
2021/10/20 08:19:47;;;;;;;7.83;6.67;;;15.90;99.90;;;;;;5031850;28;20204;-46
2021/10/20 08:22:14;;;;;;;8.17;7.47;;;16.00;99.90;;;;;;5036514;28;20207;-53
2021/10/20 08:24:40;;;;;;;8.73;7.03;;;16.00;99.90;;;;;;5020965;28;20210;-48
2021/10/20 08:27:07;;;;;;;10.53;7.10;;;16.00;99.90;;;;;;5034800;28;20854;-45
2021/10/20 08:29:34;;;;;;;7.37;6.47;;;16.00;99.90;;;;;;5031080;28;20207;-46
2021/10/20 08:32:03;;;;;;;10.93;7.53;;;16.10;99.90;;;;;;5042961;28;20199;-51
2021/10/20 08:34:30;;;;;;;7.90;6.60;;;16.10;99.90;;;;;;5033342;28;20214;-51
2021/10/20 08:36:57;;;;;;;8.67;6.47;;;16.20;99.90;;;;;;5035498;28;20203;-45
2021/10/20 08:39:23;;;;;;;8.57;6.87;;;16.20;99.90;;;;;;5024351;28;20211;-53
2021/10/20 08:41:50;;;;;;;9.60;7.27;;;16.30;99.90;;;;;;5023873;28;20200;-45
2021/10/20 08:44:17;;;;;;;8.97;7.20;;;16.30;99.90;;;;;;5029135;28;20278;-51
2021/10/20 08:46:44;;;;;;;9.67;7.00;;;16.30;99.90;;;;;;5022932;28;20203;-47
2021/10/20 08:49:13;;;;;;;8.57;6.70;;;16.40;99.90;;;;;;5044255;28;20282;-47
2021/10/20 08:51:40;;;;;;;7.60;6.80;;;16.40;99.90;;;;;;5036174;28;20211;-47
2021/10/20 08:54:07;;;;;;;7.93;7.13;;;16.40;99.90;;;;;;5044377;28;20223;-48
2021/10/20 08:56:34;;;;;;;10.50;7.83;;;16.50;99.90;;;;;;5028633;28;20902;-43
2021/10/20 08:59:00;;;;;;;10.93;7.50;;;16.50;99.90;;;;;;5035864;28;20544;-48
2021/10/20 09:01:27;;;;;;;8.27;7.43;;;16.50;99.90;;;;;;5033489;28;20206;-53
2021/10/20 09:03:54;;;;;;;11.80;8.00;;;16.60;99.90;;;;;;5040634;28;20234;-43
2021/10/20 09:06:26;;;;;;;9.80;7.70;;;16.60;99.90;;;;;;5032194;28;20278;-55
2021/10/20 09:08:53;;;;;;;9.10;8.20;;;16.60;99.90;;;;;;5032219;28;20207;-46
2021/10/20 09:11:32;;;;;;;9.87;8.00;;;16.60;99.90;;;;;;5029033;28;20227;-44
2021/10/20 09:13:59;;;;;;;10.37;7.90;;;16.60;99.90;;;;;;5029220;28;20250;-48
2021/10/20 09:16:26;;;;;;;9.77;8.33;;;16.60;99.90;;;;;;5030210;28;20227;-51
2021/10/20 09:18:53;;;;;;;9.63;7.70;;;16.60;99.90;;;;;;5031164;28;20199;-50
2021/10/20 09:21:19;;;;;;;9.27;8.30;;;16.70;99.90;;;;;;5034601;28;20210;-48
2021/10/20 09:23:47;;;;;;;10.10;8.30;;;16.70;99.90;;;;;;5031344;28;20219;-47
2021/10/20 09:26:14;;;;;;;13.17;8.30;;;16.80;99.90;;;;;;5034281;28;20202;-47
2021/10/20 09:28:41;;;;;;;12.47;8.57;;;16.90;99.90;;;;;;5033946;28;20203;-53
2021/10/20 09:31:10;;;;;;;10.67;7.97;;;17.00;99.90;;;;;;5037494;28;20219;-47
2021/10/20 09:33:38;;;;;;;8.37;7.43;;;17.10;99.90;;;;;;5036235;28;20229;-52
2021/10/20 09:36:06;;;;;;;10.40;6.93;;;17.20;99.90;;;;;;5028483;28;20203;-45
2021/10/20 09:38:34;;;;;;;11.43;8.27;;;17.20;99.90;;;;;;5031461;28;20203;-50
2021/10/20 09:41:06;;;;;;;10.00;7.87;;;17.20;99.90;;;;;;5025490;28;20404;-45
2021/10/20 09:43:33;;;;;;;9.73;7.13;;;17.20;99.90;;;;;;5037842;28;20222;-52
2021/10/20 09:46:02;;;;;;;8.73;7.53;;;17.10;99.90;;;;;;5040305;28;20196;-46
2021/10/20 09:48:29;;;;;;;11.83;8.03;;;17.10;99.90;;;;;;5030223;28;20285;-50
2021/10/20 09:50:58;;;;;;;11.07;8.13;;;17.10;99.90;;;;;;5031239;28;20974;-44
2021/10/20 09:53:27;;;;;;;9.33;7.60;;;17.00;99.90;;;;;;5031999;28;20246;-50
2021/10/20 09:55:54;;;;;;;14.90;8.13;;;17.00;99.90;;;;;;5029534;28;20592;-42
2021/10/20 09:58:22;;;;;;;13.60;8.17;;;17.00;99.90;;;;;;5031032;28;20207;-44
2021/10/20 10:00:49;;;;;;;10.73;7.63;;;17.00;99.90;;;;;;5031833;28;20209;-43
2021/10/20 10:03:15;;;;;;;9.90;8.27;;;17.10;99.90;;;;;;5035761;28;20726;-45
2021/10/20 10:05:42;;;;;;;8.57;7.57;;;17.10;99.90;;;;;;5036832;28;20206;-42
2021/10/20 10:08:09;;;;;;;10.60;8.43;;;17.20;99.90;;;;;;5032360;28;20207;-47
2021/10/20 10:10:37;;;;;;;9.97;7.50;;;17.30;99.90;;;;;;5027102;28;22352;-50
2021/10/20 10:13:09;;;;;;;9.50;8.33;;;17.30;99.90;;;;;;5031572;28;20360;-45
2021/10/20 10:15:39;;;;;;;8.40;7.43;;;17.40;99.90;;;;;;5024861;28;20207;-55
2021/10/20 10:18:08;;;;;;;12.33;7.30;;;17.40;99.90;;;;;;5036504;28;20199;-51
2021/10/20 10:20:41;;;;;;;9.30;6.47;;;17.40;99.90;;;;;;5031891;28;20823;-48
2021/10/20 10:23:17;;;;;;;10.37;7.60;;;17.40;99.90;;;;;;5033920;28;20227;-45
2021/10/20 10:25:44;;;;;;;7.50;6.63;;;17.40;99.90;;;;;;5033340;28;20856;-46
2021/10/20 10:28:23;;;;;;;10.40;7.83;;;17.40;99.90;;;;;;5023233;28;20203;-43
2021/10/20 10:30:54;;;;;;;8.87;7.37;;;17.40;99.90;;;;;;5032724;28;21148;-48
2021/10/20 10:33:22;;;;;;;8.77;6.97;;;17.30;99.90;;;;;;5035006;28;20579;-49
2021/10/20 10:36:11;;;;;;;9.83;7.20;;;17.30;99.90;;;;;;5024235;28;20202;-51
2021/10/20 10:38:43;;;;;;;8.50;7.63;;;17.20;99.90;;;;;;5017182;28;20203;-52
2021/10/20 10:41:26;;;;;;;8.20;6.53;;;17.20;99.90;;;;;;5024544;28;20204;-50
2021/10/20 10:44:27;;;;;;;7.30;6.60;;;17.20;99.90;;;;;;5021910;28;20223;-46
2021/10/20 10:47:16;;;;;;;8.93;7.23;;;17.20;99.90;;;;;;5024276;28;20239;-47
2021/10/20 10:49:45;;;;;;;11.97;6.83;;;17.10;99.90;;;;;;5033802;28;20199;-50
2021/10/20 10:52:19;;;;;;;7.67;6.87;;;17.10;99.90;;;;;;5035768;28;20246;-51
2021/10/20 10:55:13;;;;;;;9.77;7.20;;;17.00;99.90;;;;;;5027794;28;20202;-43
2021/10/20 10:57:50;;;;;;;7.63;6.83;;;17.00;99.90;;;;;;5005791;28;20223;-43
2021/10/20 11:00:36;;;;;;;11.37;6.53;;;16.90;99.90;;;;;;5026711;28;20206;-49
2021/10/20 11:03:26;;;;;;;9.30;6.80;;;16.80;99.90;;;;;;5034542;28;20569;-48
2021/10/20 11:05:55;;;;;;;7.27;6.00;;;16.80;99.90;;;;;;5029551;28;20230;-47
2021/10/20 11:08:22;;;;;;;7.20;6.50;;;16.80;99.90;;;;;;5029023;28;20277;-50
2021/10/20 11:10:50;;;;;;;7.83;7.07;;;16.80;99.90;;;;;;5036788;28;20223;-49
2021/10/20 11:13:18;;;;;;;7.33;6.57;;;16.80;99.90;;;;;;5018434;28;20235;-49
2021/10/20 11:15:46;;;;;;;11.20;6.83;;;16.80;99.90;;;;;;5031491;28;20205;-47
2021/10/20 11:18:13;;;;;;;6.77;6.10;;;16.80;99.90;;;;;;5029900;28;20209;-49
2021/10/20 11:20:43;;;;;;;8.53;7.20;;;16.80;99.90;;;;;;5028677;28;20200;-50
2021/10/20 11:23:13;;;;;;;6.93;5.87;;;16.90;99.90;;;;;;5028126;28;20266;-53
2021/10/20 11:25:41;;;;;;;7.40;6.60;;;16.90;99.90;;;;;;5029937;28;20206;-47
2021/10/20 11:28:09;;;;;;;7.57;6.73;;;16.90;99.90;;;;;;5033276;28;20203;-53
2021/10/20 11:30:37;;;;;;;7.97;6.43;;;17.00;99.90;;;;;;5024274;28;20223;-47
2021/10/20 11:33:08;;;;;;;10.67;6.37;;;17.10;99.90;;;;;;5040888;28;20219;-53
2021/10/20 11:35:35;;;;;;;7.63;6.33;;;17.10;99.90;;;;;;5034019;28;20900;-43
2021/10/20 11:38:06;;;;;;;9.20;6.77;;;17.10;99.90;;;;;;5037254;28;20207;-48
2021/10/20 11:40:35;;;;;;;8.57;5.77;;;17.20;99.90;;;;;;5028196;28;21555;-45
2021/10/20 11:43:02;;;;;;;8.43;6.90;;;17.20;99.90;;;;;;5037160;28;20231;-46
2021/10/20 11:45:31;;;;;;;7.70;6.13;;;17.10;99.90;;;;;;5023001;28;22240;-45
2021/10/20 11:48:02;;;;;;;7.43;6.73;;;17.10;99.90;;;;;;5046761;28;20196;-47
2021/10/20 11:50:30;;;;;;;6.37;5.40;;;17.10;99.90;;;;;;5033321;28;20235;-44
2021/10/20 11:52:59;;;;;;;9.43;6.57;;;17.10;99.90;;;;;;5032795;28;20579;-49
2021/10/20 11:55:27;;;;;;;7.53;6.37;;;17.10;99.90;;;;;;5028614;28;20219;-45
2021/10/20 11:57:54;;;;;;;6.37;5.47;;;17.10;99.90;;;;;;5028909;28;20214;-46
2021/10/20 12:00:21;;;;;;;7.37;5.83;;;17.10;99.90;;;;;;5025472;28;20207;-53
2021/10/20 12:02:48;;;;;;;6.30;5.70;;;17.10;99.90;;;;;;5038331;28;20286;-47
2021/10/20 12:05:15;;;;;;;7.47;6.07;;;17.20;99.90;;;;;;5039487;28;20203;-46
2021/10/20 12:07:47;;;;;;;8.70;5.57;;;17.20;99.90;;;;;;5049175;28;20195;-47
2021/10/20 12:10:14;;;;;;;7.47;5.93;;;17.30;99.90;;;;;;5042146;28;20211;-44
2021/10/20 12:12:43;;;;;;;5.87;5.30;;;17.30;99.90;;;;;;5038886;28;20224;-44
2021/10/20 12:15:16;;;;;;;5.67;4.97;;;17.30;99.90;;;;;;5034964;28;20215;-46
2021/10/20 12:17:45;;;;;;;6.37;5.77;;;17.30;99.90;;;;;;5031517;28;20207;-51
2021/10/20 12:20:14;;;;;;;6.00;5.40;;;17.30;99.90;;;;;;5040833;28;20664;-45
2021/10/20 12:22:42;;;;;;;6.93;6.33;;;17.30;99.90;;;;;;5043039;28;20799;-51
2021/10/20 12:25:09;;;;;;;6.87;5.60;;;17.30;99.90;;;;;;5038888;28;20214;-48
2021/10/20 12:27:39;;;;;;;8.63;6.00;;;17.20;99.90;;;;;;5044541;28;20199;-52
2021/10/20 12:30:09;;;;;;;6.93;6.23;;;17.10;99.90;;;;;;5037609;28;20199;-45
2021/10/20 12:32:39;;;;;;;7.80;6.50;;;17.00;99.90;;;;;;5031752;28;20907;-51
2021/10/20 12:35:09;;;;;;;8.43;7.33;;;16.90;99.90;;;;;;5039041;28;20657;-48
2021/10/20 12:37:38;;;;;;;7.63;6.93;;;16.70;99.90;;;;;;5039772;28;20187;-46
2021/10/20 12:40:10;;;;;;;9.47;7.90;;;16.60;99.90;;;;;;5041985;28;20211;-47
2021/10/20 12:42:48;;;;;;;9.60;7.97;;;16.50;99.90;;;;;;5038527;28;20219;-47
2021/10/20 12:45:17;;;;;;;11.37;7.63;;;16.50;99.90;;;;;;5034478;28;20550;-44